createdAt,value
2023-02-11T00:00:26.580Z,86.17
2023-02-11T00:01:26.565Z,86.21
2023-02-11T00:02:26.543Z,86.21
2023-02-11T00:03:26.626Z,86.32
2023-02-11T00:04:26.505Z,86.83
2023-02-11T00:05:26.529Z,86.63
2023-02-11T00:06:26.480Z,86.69
2023-02-11T00:07:26.466Z,86.32
2023-02-11T00:08:26.456Z,86.21
2023-02-11T00:09:26.453Z,86.42
2023-02-11T00:10:26.450Z,86.63
2023-02-11T00:11:26.440Z,86.63
2023-02-11T00:12:26.442Z,86.42
2023-02-11T00:13:26.397Z,86.42
2023-02-11T00:14:26.395Z,86.63
2023-02-11T00:15:26.415Z,86.52
2023-02-11T00:16:26.394Z,86.52
2023-02-11T00:17:26.360Z,86.42
2023-02-11T00:18:26.351Z,86.32
2023-02-11T00:19:26.329Z,86.32
2023-02-11T00:20:26.280Z,86.32
2023-02-11T00:21:26.295Z,86.32
2023-02-11T00:22:26.273Z,86.42
2023-02-11T00:23:26.312Z,86.42
2023-02-11T00:24:26.241Z,86.27
2023-02-11T00:25:26.262Z,86.17
2023-02-11T00:26:26.233Z,86.07
2023-02-11T00:27:26.239Z,85.86
2023-02-11T00:28:26.203Z,85.65
2023-02-11T00:29:26.224Z,85.51
2023-02-11T00:30:26.221Z,85.51
2023-02-11T00:31:26.368Z,85.41
2023-02-11T00:32:26.145Z,85.30
2023-02-11T00:33:26.140Z,85.41
2023-02-11T00:34:26.139Z,85.10
2023-02-11T00:35:26.129Z,85.41
2023-02-11T00:36:26.129Z,85.20
2023-02-11T00:37:26.107Z,85.10
2023-02-11T00:38:26.065Z,85.10
2023-02-11T00:39:26.087Z,85.10
2023-02-11T00:40:26.087Z,85.30
2023-02-11T00:41:26.054Z,85.30
2023-02-11T00:42:26.052Z,85.41
2023-02-11T00:43:26.016Z,85.61
2023-02-11T00:44:26.018Z,85.51
2023-02-11T00:45:25.994Z,85.51
2023-02-11T00:46:26.034Z,85.61
2023-02-11T00:47:26.018Z,85.61
2023-02-11T00:48:25.949Z,85.51
2023-02-11T00:49:26.009Z,85.72
2023-02-11T00:50:25.937Z,85.82
2023-02-11T00:51:25.927Z,85.51
2023-02-11T00:52:32.939Z,85.72
2023-02-11T00:53:25.889Z,86.03
2023-02-11T00:54:27.365Z,85.82
2023-02-11T00:55:25.858Z,85.72
2023-02-11T00:56:25.848Z,85.72
2023-02-11T00:57:25.817Z,85.82
2023-02-11T00:58:25.830Z,85.72
2023-02-11T00:59:25.797Z,85.72
2023-02-11T01:00:25.789Z,85.72
2023-02-11T01:01:25.822Z,85.82
2023-02-11T01:02:25.776Z,85.72
2023-02-11T01:03:25.749Z,85.82
2023-02-11T01:04:25.748Z,86.03
2023-02-11T01:05:25.812Z,85.72
2023-02-11T01:06:25.708Z,86.03
2023-02-11T01:07:25.701Z,85.72
2023-02-11T01:08:25.696Z,85.82
2023-02-11T01:09:25.681Z,85.82
2023-02-11T01:10:25.664Z,85.82
2023-02-11T01:11:25.665Z,85.61
2023-02-11T01:12:25.656Z,85.93
2023-02-11T01:13:25.644Z,85.72
2023-02-11T01:14:25.635Z,85.93
2023-02-11T01:15:25.611Z,85.82
2023-02-11T01:16:28.302Z,86.03
2023-02-11T01:17:25.595Z,85.82
2023-02-11T01:18:25.576Z,86.03
2023-02-11T01:19:25.589Z,86.03
2023-02-11T01:20:25.557Z,85.82
2023-02-11T01:21:25.532Z,85.93
2023-02-11T01:22:25.530Z,85.72
2023-02-11T01:23:25.517Z,86.03
2023-02-11T01:24:25.513Z,85.82
2023-02-11T01:25:25.483Z,85.93
2023-02-11T01:26:25.478Z,85.82
2023-02-11T01:27:25.453Z,86.24
2023-02-11T01:28:25.519Z,86.13
2023-02-11T01:29:25.458Z,86.03
2023-02-11T01:30:25.440Z,86.24
2023-02-11T01:31:25.458Z,86.44
2023-02-11T01:32:25.397Z,86.44
2023-02-11T01:33:25.382Z,86.44
2023-02-11T01:34:25.423Z,86.55
2023-02-11T01:35:25.363Z,86.96
2023-02-11T01:36:25.356Z,86.96
2023-02-11T01:37:25.348Z,87.07
2023-02-11T01:38:25.349Z,87.27
2023-02-11T01:39:25.305Z,87.27
2023-02-11T01:40:25.302Z,87.59
2023-02-11T01:41:25.288Z,87.79
2023-02-11T01:42:25.263Z,87.79
2023-02-11T01:43:25.268Z,87.90
2023-02-11T01:44:25.264Z,88.00
2023-02-11T01:45:25.266Z,88.10
2023-02-11T01:46:25.279Z,88.00
2023-02-11T01:47:25.232Z,88.10
2023-02-11T01:48:25.193Z,87.90
2023-02-11T01:49:25.312Z,87.79
2023-02-11T01:50:25.181Z,88.10
2023-02-11T01:51:25.198Z,87.90
2023-02-11T01:52:25.161Z,87.79
2023-02-11T01:53:25.151Z,87.69
2023-02-11T01:54:25.144Z,87.79
2023-02-11T01:55:25.135Z,87.90
2023-02-11T01:56:25.133Z,87.79
2023-02-11T01:57:25.353Z,87.48
2023-02-11T01:58:25.099Z,87.17
2023-02-11T01:59:25.062Z,87.17
2023-02-11T02:00:25.057Z,87.07
2023-02-11T02:01:25.066Z,87.07
2023-02-11T02:02:25.054Z,87.17
2023-02-11T02:03:25.062Z,87.07
2023-02-11T02:04:25.006Z,87.07
2023-02-11T02:05:25.014Z,86.96
2023-02-11T02:06:24.997Z,87.07
2023-02-11T02:07:25.003Z,86.86
2023-02-11T02:08:24.968Z,86.86
2023-02-11T02:09:24.950Z,86.93
2023-02-11T02:10:24.940Z,86.96
2023-02-11T02:11:24.912Z,86.93
2023-02-11T02:12:24.901Z,86.82
2023-02-11T02:13:24.912Z,86.82
2023-02-11T02:14:24.894Z,87.13
2023-02-11T02:15:24.862Z,87.03
2023-02-11T02:16:24.858Z,86.93
2023-02-11T02:17:24.854Z,86.82
2023-02-11T02:18:24.818Z,86.72
2023-02-11T02:19:24.808Z,86.72
2023-02-11T02:20:24.788Z,86.72
2023-02-11T02:21:24.799Z,86.72
2023-02-11T02:22:24.770Z,86.82
2023-02-11T02:23:24.779Z,86.72
2023-02-11T02:24:24.763Z,86.61
2023-02-11T02:25:24.752Z,86.72
2023-02-11T02:26:24.738Z,86.61
2023-02-11T02:27:24.706Z,86.72
2023-02-11T02:28:24.774Z,86.82
2023-02-11T02:29:24.708Z,86.72
2023-02-11T02:30:24.703Z,86.72
2023-02-11T02:31:24.663Z,86.72
2023-02-11T02:32:24.646Z,86.93
2023-02-11T02:33:24.679Z,86.93
2023-02-11T02:34:24.616Z,86.93
2023-02-11T02:35:24.617Z,86.93
2023-02-11T02:36:24.592Z,87.13
2023-02-11T02:37:24.591Z,87.24
2023-02-11T02:38:24.569Z,87.13
2023-02-11T02:39:24.566Z,87.13
2023-02-11T02:40:24.547Z,87.03
2023-02-11T02:41:24.546Z,87.13
2023-02-11T02:42:24.518Z,87.24
2023-02-11T02:43:24.528Z,87.45
2023-02-11T02:44:24.498Z,87.45
2023-02-11T02:45:24.485Z,87.13
2023-02-11T02:46:24.574Z,87.45
2023-02-11T02:47:24.478Z,87.24
2023-02-11T02:48:24.445Z,87.34
2023-02-11T02:49:24.443Z,87.24
2023-02-11T02:50:24.407Z,87.45
2023-02-11T02:51:24.406Z,87.45
2023-02-11T02:52:24.412Z,87.34
2023-02-11T02:53:24.377Z,87.34
2023-02-11T02:54:24.357Z,87.45
2023-02-11T02:55:24.358Z,87.30
2023-02-11T02:56:24.374Z,87.30
2023-02-11T02:57:24.326Z,87.61
2023-02-11T02:58:24.330Z,87.40
2023-02-11T02:59:24.369Z,87.40
2023-02-11T03:00:24.324Z,87.40
2023-02-11T03:01:24.317Z,87.30
2023-02-11T03:02:24.306Z,87.40
2023-02-11T03:03:24.358Z,87.30
2023-02-11T03:04:24.296Z,87.40
2023-02-11T03:05:24.257Z,87.30
2023-02-11T03:06:24.221Z,87.30
2023-02-11T03:07:24.242Z,87.51
2023-02-11T03:08:24.206Z,87.40
2023-02-11T03:09:24.211Z,87.51
2023-02-11T03:10:24.174Z,87.51
2023-02-11T03:11:24.148Z,87.61
2023-02-11T03:12:24.142Z,87.51
2023-02-11T03:13:24.119Z,87.61
2023-02-11T03:14:24.120Z,87.71
2023-02-11T03:15:24.120Z,87.71
2023-02-11T03:16:24.136Z,87.71
2023-02-11T03:17:24.095Z,87.82
2023-02-11T03:18:24.078Z,87.71
2023-02-11T03:19:24.069Z,87.51
2023-02-11T03:20:24.035Z,87.61
2023-02-11T03:21:24.032Z,87.61
2023-02-11T03:22:24.033Z,87.71
2023-02-11T03:23:24.021Z,87.82
2023-02-11T03:24:23.978Z,88.02
2023-02-11T03:25:23.982Z,88.02
2023-02-11T03:26:23.962Z,87.82
2023-02-11T03:27:23.953Z,87.68
2023-02-11T03:28:23.977Z,87.88
2023-02-11T03:29:23.938Z,87.78
2023-02-11T03:30:23.898Z,87.68
2023-02-11T03:31:24.070Z,87.88
2023-02-11T03:32:23.894Z,87.99
2023-02-11T03:33:23.866Z,87.99
2023-02-11T03:34:23.858Z,87.78
2023-02-11T03:35:23.852Z,87.88
2023-02-11T03:36:23.818Z,87.88
2023-02-11T03:37:23.822Z,87.99
2023-02-11T03:38:23.808Z,87.88
2023-02-11T03:39:23.805Z,87.88
2023-02-11T03:40:23.769Z,88.09
2023-02-11T03:41:23.780Z,88.20
2023-02-11T03:42:23.761Z,88.20
2023-02-11T03:43:23.737Z,87.88
2023-02-11T03:44:23.731Z,87.88
2023-02-11T03:45:23.708Z,87.99
2023-02-11T03:46:23.821Z,87.99
2023-02-11T03:47:23.707Z,88.09
2023-02-11T03:48:23.678Z,88.09
2023-02-11T03:49:23.657Z,87.99
2023-02-11T03:50:23.649Z,88.20
2023-02-11T03:51:23.652Z,88.09
2023-02-11T03:52:23.631Z,88.09
2023-02-11T03:53:23.624Z,88.40
2023-02-11T03:54:23.623Z,88.51
2023-02-11T03:55:23.587Z,88.30
2023-02-11T03:56:23.586Z,88.20
2023-02-11T03:57:23.560Z,88.20
2023-02-11T03:58:23.551Z,88.20
2023-02-11T03:59:23.528Z,88.30
2023-02-11T04:00:23.528Z,88.20
2023-02-11T04:01:23.643Z,88.30
2023-02-11T04:02:23.511Z,88.40
2023-02-11T04:03:23.515Z,88.51
2023-02-11T04:04:23.468Z,88.40
2023-02-11T04:05:23.447Z,88.51
2023-02-11T04:06:23.442Z,88.51
2023-02-11T04:07:23.437Z,88.20
2023-02-11T04:08:23.430Z,88.20
2023-02-11T04:09:23.420Z,88.30
2023-02-11T04:10:23.405Z,88.51
2023-02-11T04:11:23.406Z,88.51
2023-02-11T04:12:23.365Z,88.51
2023-02-11T04:13:23.369Z,88.71
2023-02-11T04:14:23.345Z,88.61
2023-02-11T04:15:23.373Z,88.71
2023-02-11T04:16:23.440Z,88.71
2023-02-11T04:17:23.313Z,88.71
2023-02-11T04:18:23.310Z,88.82
2023-02-11T04:19:23.268Z,88.71
2023-02-11T04:20:23.266Z,88.82
2023-02-11T04:21:23.257Z,88.71
2023-02-11T04:22:23.270Z,88.82
2023-02-11T04:23:23.232Z,88.82
2023-02-11T04:24:23.207Z,88.82
2023-02-11T04:25:23.219Z,88.92
2023-02-11T04:26:23.191Z,88.88
2023-02-11T04:27:23.167Z,88.88
2023-02-11T04:28:23.208Z,88.88
2023-02-11T04:29:23.162Z,88.98
2023-02-11T04:30:23.157Z,89.09
2023-02-11T04:31:23.246Z,88.98
2023-02-11T04:32:23.124Z,89.09
2023-02-11T04:33:23.114Z,88.98
2023-02-11T04:34:23.090Z,89.19
2023-02-11T04:35:23.072Z,89.19
2023-02-11T04:36:23.066Z,89.19
2023-02-11T04:37:23.071Z,89.09
2023-02-11T04:38:23.041Z,89.09
2023-02-11T04:39:23.028Z,89.19
2023-02-11T04:40:23.001Z,89.19
2023-02-11T04:41:22.989Z,89.40
2023-02-11T04:42:22.978Z,89.40
2023-02-11T04:43:22.974Z,89.40
2023-02-11T04:44:22.962Z,89.40
2023-02-11T04:45:22.971Z,89.50
2023-02-11T04:46:23.005Z,89.50
2023-02-11T04:47:22.911Z,89.50
2023-02-11T04:48:22.918Z,89.71
2023-02-11T04:49:22.878Z,89.81
2023-02-11T04:50:22.893Z,89.81
2023-02-11T04:51:22.857Z,89.81
2023-02-11T04:52:22.871Z,90.02
2023-02-11T04:53:22.838Z,89.92
2023-02-11T04:54:22.829Z,89.92
2023-02-11T04:55:22.828Z,90.02
2023-02-11T04:56:22.815Z,90.12
2023-02-11T04:57:22.804Z,90.12
2023-02-11T04:58:22.768Z,90.23
2023-02-11T04:59:22.773Z,90.44
2023-02-11T05:00:22.769Z,90.64
2023-02-11T05:01:22.774Z,90.54
2023-02-11T05:02:22.742Z,90.64
2023-02-11T05:03:22.714Z,90.75
2023-02-11T05:04:22.812Z,90.75
2023-02-11T05:05:22.682Z,90.75
2023-02-11T05:06:22.722Z,90.75
2023-02-11T05:07:22.662Z,90.85
2023-02-11T05:08:22.644Z,90.85
2023-02-11T05:09:22.635Z,90.95
2023-02-11T05:10:22.628Z,91.06
2023-02-11T05:11:22.600Z,91.27
2023-02-11T05:12:22.594Z,91.68
2023-02-11T05:13:22.572Z,91.68
2023-02-11T05:14:22.570Z,91.89
2023-02-11T05:15:22.561Z,92.10
2023-02-11T05:16:22.581Z,92.26
2023-02-11T05:17:22.531Z,92.41
2023-02-11T05:18:22.523Z,92.47
2023-02-11T05:19:22.486Z,92.57
2023-02-11T05:20:22.510Z,92.57
2023-02-11T05:21:22.473Z,92.78
2023-02-11T05:22:22.462Z,92.88
2023-02-11T05:23:22.456Z,92.98
2023-02-11T05:24:22.448Z,93.19
2023-02-11T05:25:22.416Z,93.19
2023-02-11T05:26:22.409Z,93.29
2023-02-11T05:27:22.398Z,93.29
2023-02-11T05:28:22.445Z,93.29
2023-02-11T05:29:22.347Z,93.40
2023-02-11T05:30:22.377Z,93.50
2023-02-11T05:31:22.354Z,93.50
2023-02-11T05:32:22.334Z,93.50
2023-02-11T05:33:22.320Z,93.50
2023-02-11T05:34:22.322Z,93.60
2023-02-11T05:35:22.316Z,93.56
2023-02-11T05:36:22.273Z,93.56
2023-02-11T05:37:22.310Z,93.66
2023-02-11T05:38:22.246Z,93.66
2023-02-11T05:39:22.241Z,93.77
2023-02-11T05:40:22.227Z,93.66
2023-02-11T05:41:22.233Z,93.77
2023-02-11T05:42:22.209Z,93.87
2023-02-11T05:43:22.198Z,93.98
2023-02-11T05:44:22.166Z,94.08
2023-02-11T05:45:22.159Z,94.18
2023-02-11T05:46:22.177Z,94.29
2023-02-11T05:47:22.125Z,94.29
2023-02-11T05:48:22.144Z,94.29
2023-02-11T05:49:22.124Z,94.29
2023-02-11T05:50:22.108Z,94.29
2023-02-11T05:51:22.110Z,94.29
2023-02-11T05:52:22.084Z,94.18
2023-02-11T05:53:22.075Z,94.18
2023-02-11T05:54:22.045Z,94.18
2023-02-11T05:55:22.025Z,94.18
2023-02-11T05:56:22.028Z,94.08
2023-02-11T05:57:22.015Z,94.04
2023-02-11T05:58:21.995Z,94.04
2023-02-11T05:59:21.989Z,94.04
2023-02-11T06:00:21.972Z,94.04
2023-02-11T06:01:21.969Z,94.04
2023-02-11T06:02:21.957Z,94.14
2023-02-11T06:03:21.965Z,94.14
2023-02-11T06:04:21.935Z,94.14
2023-02-11T06:05:21.909Z,94.35
2023-02-11T06:06:21.888Z,94.35
2023-02-11T06:07:21.894Z,94.45
2023-02-11T06:08:21.863Z,94.56
2023-02-11T06:09:21.872Z,94.66
2023-02-11T06:10:21.849Z,94.66
2023-02-11T06:11:21.814Z,94.76
2023-02-11T06:12:21.806Z,94.97
2023-02-11T06:13:21.800Z,94.97
2023-02-11T06:14:21.811Z,95.07
2023-02-11T06:15:21.765Z,94.97
2023-02-11T06:16:21.808Z,95.07
2023-02-11T06:17:21.751Z,95.07
2023-02-11T06:18:21.736Z,95.18
2023-02-11T06:19:21.754Z,95.28
2023-02-11T06:20:21.706Z,95.39
2023-02-11T06:21:21.694Z,95.39
2023-02-11T06:22:21.701Z,95.49
2023-02-11T06:23:21.678Z,95.59
2023-02-11T06:24:44.371Z,95.65
2023-02-11T06:25:22.693Z,95.65
2023-02-11T06:26:21.656Z,95.75
2023-02-11T06:27:21.615Z,95.75
2023-02-11T06:28:21.649Z,95.86
2023-02-11T06:29:21.599Z,95.96
2023-02-11T06:30:21.626Z,95.96
2023-02-11T06:31:21.650Z,95.96
2023-02-11T06:32:42.231Z,95.96
2023-02-11T06:33:22.549Z,95.96
2023-02-11T06:34:21.540Z,96.06
2023-02-11T06:35:21.514Z,96.11
2023-02-11T06:36:21.517Z,96.06
2023-02-11T06:37:21.524Z,96.27
2023-02-11T06:38:21.486Z,96.27
2023-02-11T06:39:21.463Z,96.27
2023-02-11T06:40:21.456Z,96.27
2023-02-11T06:41:21.457Z,96.37
2023-02-11T06:42:21.497Z,96.48
2023-02-11T06:43:21.437Z,96.69
2023-02-11T06:44:21.420Z,96.73
2023-02-11T06:45:21.384Z,96.79
2023-02-11T06:46:21.480Z,97.00
2023-02-11T06:47:21.406Z,97.00
2023-02-11T06:48:21.433Z,97.20
2023-02-11T06:49:21.335Z,97.20
2023-02-11T06:50:21.338Z,97.10
2023-02-11T06:51:21.357Z,97.20
2023-02-11T06:52:21.365Z,97.20
2023-02-11T06:53:21.306Z,97.31
2023-02-11T06:54:21.282Z,97.41
2023-02-11T06:55:21.257Z,97.62
2023-02-11T06:56:21.283Z,97.62
2023-02-11T06:57:21.264Z,97.72
2023-02-11T06:58:21.244Z,97.83
2023-02-11T06:59:21.208Z,97.93
2023-02-11T07:00:21.222Z,97.93
2023-02-11T07:01:21.338Z,97.93
2023-02-11T07:02:21.433Z,97.83
2023-02-11T07:03:21.287Z,97.93
2023-02-11T07:04:21.176Z,97.83
2023-02-11T07:05:21.170Z,97.83
2023-02-11T07:06:21.137Z,97.83
2023-02-11T07:07:21.130Z,97.83
2023-02-11T07:08:21.148Z,97.83
2023-02-11T07:09:21.101Z,97.83
2023-02-11T07:10:21.120Z,97.83
2023-02-11T07:11:21.090Z,97.83
2023-02-11T07:12:21.076Z,97.93
2023-02-11T07:13:21.090Z,97.93
2023-02-11T07:14:21.047Z,97.93
2023-02-11T07:15:21.016Z,97.93
2023-02-11T07:16:21.170Z,97.93
2023-02-11T07:17:20.985Z,97.93
2023-02-11T07:18:20.975Z,98.03
2023-02-11T07:19:20.977Z,97.93
2023-02-11T07:20:20.959Z,98.03
2023-02-11T07:21:20.935Z,98.03
2023-02-11T07:22:20.967Z,97.99
2023-02-11T07:23:20.919Z,97.99
2023-02-11T07:24:20.910Z,97.99
2023-02-11T07:25:20.880Z,97.99
2023-02-11T07:26:20.876Z,97.99
2023-02-11T07:27:20.879Z,98.09
2023-02-11T07:28:20.890Z,98.09
2023-02-11T07:29:20.842Z,98.09
2023-02-11T07:30:20.840Z,98.09
2023-02-11T07:31:20.930Z,98.09
2023-02-11T07:32:20.880Z,98.09
2023-02-11T07:33:20.807Z,98.19
2023-02-11T07:34:20.783Z,98.19
2023-02-11T07:35:20.770Z,98.09
2023-02-11T07:36:20.752Z,98.19
2023-02-11T07:37:20.774Z,98.19
2023-02-11T07:38:20.736Z,98.19
2023-02-11T07:39:20.777Z,98.09
2023-02-11T07:40:20.708Z,98.09
2023-02-11T07:41:20.680Z,98.09
2023-02-11T07:42:20.693Z,97.99
2023-02-11T07:43:20.698Z,97.99
2023-02-11T07:44:20.694Z,97.99
2023-02-11T07:45:20.647Z,98.09
2023-02-11T07:46:20.658Z,98.09
2023-02-11T07:47:20.634Z,98.05
2023-02-11T07:48:20.592Z,97.94
2023-02-11T07:49:20.588Z,97.94
2023-02-11T07:50:20.574Z,97.94
2023-02-11T07:51:20.556Z,97.94
2023-02-11T07:52:20.562Z,97.84
2023-02-11T07:53:20.595Z,97.84
2023-02-11T07:54:20.549Z,97.84
2023-02-11T07:55:20.503Z,97.84
2023-02-11T07:56:20.515Z,97.94
2023-02-11T07:57:20.488Z,97.94
2023-02-11T07:58:20.479Z,97.84
2023-02-11T07:59:20.470Z,97.74
2023-02-11T08:00:21.283Z,97.63
2023-02-11T08:01:20.497Z,97.63
2023-02-11T08:02:20.485Z,97.63
2023-02-11T08:03:20.427Z,97.63
2023-02-11T08:04:27.447Z,97.63
2023-02-11T08:05:20.400Z,97.63
2023-02-11T08:06:20.411Z,97.63
2023-02-11T08:07:20.362Z,97.53
2023-02-11T08:08:21.101Z,97.49
2023-02-11T08:09:21.118Z,97.38
2023-02-11T08:10:20.334Z,97.38
2023-02-11T08:11:20.324Z,97.28
2023-02-11T08:12:20.276Z,97.17
2023-02-11T08:13:20.280Z,97.17
2023-02-11T08:14:20.256Z,97.17
2023-02-11T08:15:20.269Z,97.17
2023-02-11T08:16:20.323Z,97.07
2023-02-11T08:17:20.232Z,97.07
2023-02-11T08:18:20.234Z,96.97
2023-02-11T08:19:20.203Z,96.97
2023-02-11T08:20:20.288Z,96.97
2023-02-11T08:21:20.184Z,96.97
2023-02-11T08:22:20.166Z,96.97
2023-02-11T08:23:20.143Z,96.92
2023-02-11T08:24:20.122Z,96.92
2023-02-11T08:25:20.124Z,96.92
2023-02-11T08:26:20.117Z,97.02
2023-02-11T08:27:20.106Z,97.02
2023-02-11T08:28:20.157Z,97.02
2023-02-11T08:29:20.107Z,97.13
2023-02-11T08:30:20.065Z,97.23
2023-02-11T08:31:20.154Z,97.33
2023-02-11T08:32:20.106Z,97.44
2023-02-11T08:33:20.034Z,97.54
2023-02-11T08:34:20.011Z,97.54
2023-02-11T08:35:20.028Z,97.64
2023-02-11T08:36:19.970Z,97.64
2023-02-11T08:37:19.993Z,97.64
2023-02-11T08:38:19.942Z,97.75
2023-02-11T08:39:20.766Z,97.64
2023-02-11T08:40:19.937Z,97.64
2023-02-11T08:41:19.965Z,97.75
2023-02-11T08:42:19.898Z,97.85
2023-02-11T08:43:19.902Z,97.85
2023-02-11T08:44:19.883Z,97.96
2023-02-11T08:45:19.886Z,97.96
2023-02-11T08:46:19.917Z,97.96
2023-02-11T08:47:19.857Z,98.06
2023-02-11T08:48:19.822Z,98.16
2023-02-11T08:49:19.824Z,98.16
2023-02-11T08:50:19.825Z,98.27
2023-02-11T08:51:19.806Z,98.37
2023-02-11T08:52:19.945Z,98.47
2023-02-11T08:53:19.772Z,98.47
2023-02-11T08:54:19.785Z,98.57
2023-02-11T08:55:19.752Z,98.68
2023-02-11T08:56:19.727Z,98.68
2023-02-11T08:57:19.726Z,98.78
2023-02-11T08:58:19.698Z,98.78
2023-02-11T08:59:19.701Z,98.78
2023-02-11T09:00:19.676Z,98.74
2023-02-11T09:01:22.303Z,98.74
2023-02-11T09:02:19.719Z,98.74
2023-02-11T09:03:19.654Z,98.74
2023-02-11T09:04:19.628Z,98.74
2023-02-11T09:05:19.631Z,98.63
2023-02-11T09:06:19.683Z,98.63
2023-02-11T09:07:19.599Z,98.63
2023-02-11T09:08:19.580Z,98.63
2023-02-11T09:09:19.566Z,98.63
2023-02-11T09:10:19.542Z,98.53
2023-02-11T09:11:19.542Z,98.53
2023-02-11T09:12:19.510Z,98.53
2023-02-11T09:13:19.516Z,98.43
2023-02-11T09:14:19.515Z,98.43
2023-02-11T09:15:19.495Z,98.43
2023-02-11T09:16:19.531Z,98.32
2023-02-11T09:17:19.468Z,98.32
2023-02-11T09:18:19.452Z,98.18
2023-02-11T09:19:19.438Z,98.18
2023-02-11T09:20:19.411Z,98.18
2023-02-11T09:21:19.416Z,98.18
2023-02-11T09:22:19.406Z,98.07
2023-02-11T09:23:19.378Z,98.18
2023-02-11T09:24:19.364Z,98.18
2023-02-11T09:25:19.343Z,98.18
2023-02-11T09:26:19.350Z,98.18
2023-02-11T09:27:19.323Z,98.18
2023-02-11T09:28:19.335Z,98.18
2023-02-11T09:29:19.297Z,98.18
2023-02-11T09:30:19.297Z,98.18
2023-02-11T09:31:19.477Z,98.18
2023-02-11T09:32:19.292Z,98.18
2023-02-11T09:33:19.269Z,98.28
2023-02-11T09:34:19.262Z,98.38
2023-02-11T09:35:19.247Z,98.49
2023-02-11T09:36:19.242Z,98.49
2023-02-11T09:37:19.216Z,98.49
2023-02-11T09:38:19.209Z,98.58
2023-02-11T09:39:19.190Z,98.69
2023-02-11T09:40:19.177Z,98.79
2023-02-11T09:41:19.176Z,98.79
2023-02-11T09:42:19.176Z,98.79
2023-02-11T09:43:19.139Z,98.79
2023-02-11T09:44:19.138Z,98.75
2023-02-11T09:45:19.117Z,98.69
2023-02-11T09:46:19.141Z,98.65
2023-02-11T09:47:19.078Z,98.75
2023-02-11T09:48:19.079Z,98.85
2023-02-11T09:49:19.058Z,98.96
2023-02-11T09:50:19.024Z,99.06
2023-02-11T09:51:19.035Z,99.26
2023-02-11T09:52:19.035Z,99.37
2023-02-11T09:53:19.018Z,99.57
2023-02-11T09:54:19.006Z,99.68
2023-02-11T09:55:18.998Z,99.88
2023-02-11T09:56:18.956Z,99.99
2023-02-11T09:57:28.248Z,99.99
2023-02-11T09:58:20.034Z,99.99
2023-02-11T09:59:18.955Z,99.99
2023-02-11T10:00:18.911Z,99.99
2023-02-11T10:01:21.011Z,99.99
2023-02-11T10:02:18.903Z,99.99
2023-02-11T10:03:18.923Z,99.99
2023-02-11T10:04:18.977Z,99.99
2023-02-11T10:05:18.893Z,99.99
2023-02-11T10:06:18.873Z,99.99
2023-02-11T10:07:18.820Z,99.99
2023-02-11T10:08:18.803Z,99.99
2023-02-11T10:09:18.800Z,99.99
2023-02-11T10:10:18.791Z,99.99
2023-02-11T10:11:30.986Z,99.99
2023-02-11T10:12:19.770Z,99.99
2023-02-11T10:13:18.744Z,99.99
2023-02-11T10:14:18.742Z,99.99
2023-02-11T10:15:18.759Z,99.99
2023-02-11T10:16:18.699Z,99.99
2023-02-11T10:17:18.728Z,99.99
2023-02-11T10:18:18.680Z,99.99
2023-02-11T10:19:18.811Z,99.99
2023-02-11T10:20:18.682Z,99.99
2023-02-11T10:21:18.680Z,99.99
2023-02-11T10:22:18.702Z,99.99
2023-02-11T10:23:18.643Z,99.99
2023-02-11T10:24:18.621Z,99.99
2023-02-11T10:25:18.589Z,99.99
2023-02-11T10:26:18.646Z,99.99
2023-02-11T10:27:18.597Z,99.99
2023-02-11T10:28:18.640Z,99.99
2023-02-11T10:29:18.552Z,99.99
2023-02-11T10:30:18.539Z,99.99
2023-02-11T10:31:18.649Z,99.99
2023-02-11T10:32:18.499Z,99.99
2023-02-11T10:33:18.502Z,99.99
2023-02-11T10:34:18.486Z,99.99
2023-02-11T10:35:18.470Z,99.99
2023-02-11T10:36:18.440Z,99.99
2023-02-11T10:37:18.457Z,99.99
2023-02-11T10:38:18.421Z,99.99
2023-02-11T10:39:18.431Z,99.99
2023-02-11T10:40:18.519Z,99.99
2023-02-11T10:41:18.424Z,99.99
2023-02-11T10:42:18.367Z,99.99
2023-02-11T10:43:18.400Z,99.99
2023-02-11T10:44:18.348Z,99.99
2023-02-11T10:45:18.381Z,99.99
2023-02-11T10:46:18.338Z,99.99
2023-02-11T10:47:18.343Z,99.99
2023-02-11T10:48:18.372Z,99.99
2023-02-11T10:49:18.306Z,99.99
2023-02-11T10:50:18.319Z,99.99
2023-02-11T10:51:18.267Z,99.99
2023-02-11T10:52:18.261Z,99.99
2023-02-11T10:53:18.254Z,99.99
2023-02-11T10:54:18.219Z,99.99
2023-02-11T10:55:18.212Z,99.99
2023-02-11T10:56:18.191Z,99.99
2023-02-11T10:57:18.184Z,99.99
2023-02-11T10:58:18.160Z,99.99
2023-02-11T10:59:21.046Z,99.99
2023-02-11T11:00:18.209Z,99.99
2023-02-11T11:01:24.297Z,99.99
2023-02-11T11:02:19.109Z,99.99
2023-02-11T11:03:18.111Z,99.99
2023-02-11T11:04:18.156Z,99.99
2023-02-11T11:05:18.094Z,99.99
2023-02-11T11:06:18.101Z,99.99
2023-02-11T11:07:18.101Z,99.99
2023-02-11T11:08:18.030Z,99.99
2023-02-11T11:09:18.030Z,99.99
2023-02-11T11:10:18.023Z,99.99
2023-02-11T11:11:18.027Z,99.99
2023-02-11T11:12:18.024Z,99.99
2023-02-11T11:13:17.970Z,99.99
2023-02-11T11:14:17.974Z,99.99
2023-02-11T11:15:18.014Z,99.99
2023-02-11T11:16:18.030Z,99.99
2023-02-11T11:17:17.924Z,99.99
2023-02-11T11:18:23.052Z,99.99
2023-02-11T11:19:18.933Z,99.99
2023-02-11T11:20:17.880Z,99.99
2023-02-11T11:21:17.943Z,99.99
2023-02-11T11:22:17.852Z,99.99
2023-02-11T11:23:17.861Z,99.99
2023-02-11T11:24:17.831Z,99.99
2023-02-11T11:25:17.849Z,99.99
2023-02-11T11:26:17.823Z,99.99
2023-02-11T11:27:17.813Z,99.99
2023-02-11T11:28:17.809Z,99.99
2023-02-11T11:29:17.797Z,99.99
2023-02-11T11:30:17.783Z,99.99
2023-02-11T11:31:17.879Z,99.99
2023-02-11T11:32:19.575Z,99.99
2023-02-11T11:33:17.810Z,99.99
2023-02-11T11:34:17.714Z,99.99
2023-02-11T11:35:17.689Z,99.99
2023-02-11T11:36:17.834Z,99.99
2023-02-11T11:37:17.691Z,99.99
2023-02-11T11:38:17.667Z,99.99
2023-02-11T11:39:17.637Z,99.99
2023-02-11T11:40:17.640Z,99.99
2023-02-11T11:41:17.645Z,99.99
2023-02-11T11:42:17.609Z,99.99
2023-02-11T11:43:17.610Z,99.99
2023-02-11T11:44:17.585Z,99.99
2023-02-11T11:45:17.564Z,99.99
2023-02-11T11:46:17.652Z,99.99
2023-02-11T11:47:17.577Z,99.99
2023-02-11T11:48:17.539Z,99.99
2023-02-11T11:49:17.558Z,99.99
2023-02-11T11:50:20.137Z,99.99
2023-02-11T11:51:17.488Z,99.99
2023-02-11T11:52:17.472Z,99.99
2023-02-11T11:53:17.474Z,99.99
2023-02-11T11:54:17.456Z,99.99
2023-02-11T11:55:17.465Z,99.99
2023-02-11T11:56:17.431Z,99.99
2023-02-11T11:57:17.431Z,99.99
2023-02-11T11:58:17.401Z,99.99
2023-02-11T11:59:17.398Z,99.99
2023-02-11T12:00:17.376Z,99.99
2023-02-11T12:01:17.353Z,99.99
2023-02-11T12:02:17.414Z,99.99
2023-02-11T12:03:17.366Z,99.99
2023-02-11T12:04:17.328Z,99.99
2023-02-11T12:05:17.316Z,99.99
2023-02-11T12:06:17.319Z,99.99
2023-02-11T12:07:17.283Z,99.99
2023-02-11T12:08:17.265Z,99.99
2023-02-11T12:09:17.282Z,99.99
2023-02-11T12:10:17.287Z,99.99
2023-02-11T12:11:17.227Z,99.99
2023-02-11T12:12:17.212Z,99.99
2023-02-11T12:13:17.204Z,99.99
2023-02-11T12:14:17.195Z,99.99
2023-02-11T12:15:17.209Z,99.99
2023-02-11T12:16:17.209Z,99.99
2023-02-11T12:17:17.152Z,99.99
2023-02-11T12:18:17.157Z,99.99
2023-02-11T12:19:17.146Z,99.99
2023-02-11T12:20:17.111Z,99.99
2023-02-11T12:21:17.106Z,99.99
2023-02-11T12:22:17.125Z,99.99
2023-02-11T12:23:17.072Z,99.99
2023-02-11T12:24:17.530Z,99.99
2023-02-11T12:25:17.065Z,99.99
2023-02-11T12:26:17.056Z,99.99
2023-02-11T12:27:17.032Z,99.99
2023-02-11T12:28:17.071Z,99.99
2023-02-11T12:29:17.006Z,99.99
2023-02-11T12:30:16.995Z,99.99
2023-02-11T12:31:17.149Z,99.99
2023-02-11T12:32:17.001Z,99.99
2023-02-11T12:33:16.966Z,99.99
2023-02-11T12:34:16.976Z,99.99
2023-02-11T12:35:16.951Z,99.99
2023-02-11T12:36:16.928Z,99.99
2023-02-11T12:37:16.909Z,99.99
2023-02-11T12:38:16.915Z,99.99
2023-02-11T12:39:16.886Z,99.99
2023-02-11T12:40:16.892Z,99.99
2023-02-11T12:41:16.844Z,99.99
2023-02-11T12:42:16.889Z,99.99
2023-02-11T12:43:16.829Z,99.99
2023-02-11T12:44:16.846Z,99.99
2023-02-11T12:45:16.798Z,99.99
2023-02-11T12:46:16.855Z,99.99
2023-02-11T12:47:16.795Z,99.99
2023-02-11T12:48:16.808Z,99.99
2023-02-11T12:49:16.743Z,99.99
2023-02-11T12:50:16.747Z,99.99
2023-02-11T12:51:16.718Z,99.99
2023-02-11T12:52:16.722Z,99.99